createdAt,value
2023-05-17T00:00:56.821Z,9.08
2023-05-17T00:01:56.826Z,9.08
2023-05-17T00:02:56.838Z,9.05
2023-05-17T00:03:56.794Z,9.00
2023-05-17T00:04:56.835Z,8.95
2023-05-17T00:05:56.826Z,8.90
2023-05-17T00:06:56.736Z,8.92
2023-05-17T00:07:56.702Z,8.89
2023-05-17T00:08:56.696Z,8.87
2023-05-17T00:09:56.703Z,8.87
2023-05-17T00:10:56.670Z,8.84
2023-05-17T00:11:56.647Z,8.82
2023-05-17T00:12:56.633Z,8.81
2023-05-17T00:13:56.629Z,8.77
2023-05-17T00:14:56.638Z,8.78
2023-05-17T00:15:56.604Z,8.75
2023-05-17T00:16:56.651Z,8.75
2023-05-17T00:17:56.734Z,8.72
2023-05-17T00:18:56.675Z,8.74
2023-05-17T00:19:56.605Z,8.78
2023-05-17T00:20:56.530Z,8.82
2023-05-17T00:21:56.519Z,8.84
2023-05-17T00:22:56.497Z,8.89
2023-05-17T00:23:56.484Z,8.89
2023-05-17T00:24:56.525Z,8.92
2023-05-17T00:25:56.449Z,8.96
2023-05-17T00:26:56.447Z,9.00
2023-05-17T00:27:56.428Z,9.02
2023-05-17T00:28:56.427Z,9.03
2023-05-17T00:29:56.420Z,9.03
2023-05-17T00:30:56.405Z,9.03
2023-05-17T00:31:56.378Z,9.02
2023-05-17T00:32:56.455Z,9.00
2023-05-17T00:33:56.352Z,8.97
2023-05-17T00:34:56.430Z,8.95
2023-05-17T00:35:56.352Z,8.89
2023-05-17T00:36:56.320Z,8.78
2023-05-17T00:37:56.293Z,8.72
2023-05-17T00:38:56.288Z,8.71
2023-05-17T00:39:56.323Z,8.68
2023-05-17T00:40:56.259Z,8.59
2023-05-17T00:41:56.263Z,8.53
2023-05-17T00:42:56.227Z,8.49
2023-05-17T00:43:56.211Z,8.45
2023-05-17T00:44:56.232Z,8.44
2023-05-17T00:45:56.215Z,8.38
2023-05-17T00:46:56.181Z,8.34
2023-05-17T00:47:56.238Z,8.32
2023-05-17T00:48:56.197Z,8.31
2023-05-17T00:49:56.145Z,8.28
2023-05-17T00:50:56.130Z,8.26
2023-05-17T00:51:56.108Z,8.24
2023-05-17T00:52:56.105Z,8.28
2023-05-17T00:53:56.101Z,8.34
2023-05-17T00:54:56.780Z,8.35
2023-05-17T00:55:56.107Z,8.34
2023-05-17T00:56:56.051Z,8.28
2023-05-17T00:57:56.025Z,8.24
2023-05-17T00:58:56.045Z,8.24
2023-05-17T00:59:55.999Z,8.23
2023-05-17T01:00:55.990Z,8.24
2023-05-17T01:01:55.982Z,8.26
2023-05-17T01:02:56.029Z,8.20
2023-05-17T01:03:56.027Z,8.17
2023-05-17T01:04:55.994Z,8.08
2023-05-17T01:05:55.927Z,8.05
2023-05-17T01:06:55.917Z,8.03
2023-05-17T01:07:55.910Z,8.01
2023-05-17T01:08:55.894Z,8.01
2023-05-17T01:09:55.875Z,8.03
2023-05-17T01:10:55.869Z,8.06
2023-05-17T01:11:55.848Z,8.02
2023-05-17T01:12:55.848Z,8.01
2023-05-17T01:13:55.828Z,8.02
2023-05-17T01:14:55.831Z,8.02
2023-05-17T01:15:55.795Z,8.03
2023-05-17T01:16:55.780Z,8.03
2023-05-17T01:17:55.897Z,8.01
2023-05-17T01:18:55.813Z,8.02
2023-05-17T01:19:55.777Z,8.01
2023-05-17T01:20:55.729Z,7.98
2023-05-17T01:21:55.728Z,7.98
2023-05-17T01:22:55.716Z,7.96
2023-05-17T01:23:55.691Z,7.96
2023-05-17T01:24:55.666Z,7.96
2023-05-17T01:25:55.649Z,7.95
2023-05-17T01:26:55.656Z,7.93
2023-05-17T01:27:55.630Z,7.95
2023-05-17T01:28:55.619Z,7.99
2023-05-17T01:29:55.601Z,7.99
2023-05-17T01:30:55.609Z,7.99
2023-05-17T01:31:55.588Z,7.99
2023-05-17T01:32:55.609Z,7.96
2023-05-17T01:33:55.611Z,7.91
2023-05-17T01:34:55.528Z,7.88
2023-05-17T01:35:55.517Z,7.85
2023-05-17T01:36:55.524Z,7.80
2023-05-17T01:37:55.504Z,7.74
2023-05-17T01:38:55.486Z,7.70
2023-05-17T01:39:55.457Z,7.62
2023-05-17T01:40:55.475Z,7.59
2023-05-17T01:41:55.456Z,7.58
2023-05-17T01:42:55.438Z,7.58
2023-05-17T01:43:55.408Z,7.53
2023-05-17T01:44:55.400Z,7.50
2023-05-17T01:45:55.407Z,7.50
2023-05-17T01:46:55.412Z,7.50
2023-05-17T01:47:55.403Z,7.50
2023-05-17T01:48:55.467Z,7.53
2023-05-17T01:49:55.337Z,7.59
2023-05-17T01:50:55.342Z,7.62
2023-05-17T01:51:55.306Z,7.62
2023-05-17T01:52:55.301Z,7.62
2023-05-17T01:53:55.280Z,7.62
2023-05-17T01:54:55.287Z,7.66
2023-05-17T01:55:55.267Z,7.70
2023-05-17T01:56:55.246Z,7.75
2023-05-17T01:57:55.243Z,7.81
2023-05-17T01:58:55.250Z,7.87
2023-05-17T01:59:55.203Z,7.90
2023-05-17T02:00:55.208Z,7.90
2023-05-17T02:01:55.175Z,7.91
2023-05-17T02:02:55.239Z,7.90
2023-05-17T02:03:55.194Z,7.90
2023-05-17T02:04:55.201Z,7.88
2023-05-17T02:05:55.151Z,7.84
2023-05-17T02:06:55.132Z,7.84
2023-05-17T02:07:55.097Z,7.85
2023-05-17T02:08:55.093Z,7.90
2023-05-17T02:09:55.084Z,7.93
2023-05-17T02:10:55.066Z,7.91
2023-05-17T02:11:55.053Z,7.85
2023-05-17T02:12:55.032Z,7.83
2023-05-17T02:13:55.015Z,7.78
2023-05-17T02:14:55.029Z,7.75
2023-05-17T02:15:54.984Z,7.74
2023-05-17T02:16:54.986Z,7.74
2023-05-17T02:17:55.072Z,7.75
2023-05-17T02:18:55.098Z,7.75
2023-05-17T02:19:54.963Z,7.77
2023-05-17T02:20:54.928Z,7.75
2023-05-17T02:21:54.905Z,7.67
2023-05-17T02:22:54.926Z,7.61
2023-05-17T02:23:54.904Z,7.58
2023-05-17T02:24:54.892Z,7.53
2023-05-17T02:25:54.854Z,7.48
2023-05-17T02:26:54.852Z,7.48
2023-05-17T02:27:54.831Z,7.48
2023-05-17T02:28:54.837Z,7.48
2023-05-17T02:29:54.813Z,7.48
2023-05-17T02:30:54.803Z,7.46
2023-05-17T02:31:54.841Z,7.43
2023-05-17T02:32:54.870Z,7.40
2023-05-17T02:33:54.925Z,7.37
2023-05-17T02:34:54.743Z,7.33
2023-05-17T02:35:54.735Z,7.28
2023-05-17T02:36:54.716Z,7.25
2023-05-17T02:37:54.718Z,7.18
2023-05-17T02:38:54.712Z,7.14
2023-05-17T02:39:54.689Z,7.18
2023-05-17T02:40:54.663Z,7.18
2023-05-17T02:41:54.651Z,7.18
2023-05-17T02:42:54.643Z,7.21
2023-05-17T02:43:54.646Z,7.21
2023-05-17T02:44:54.644Z,7.22
2023-05-17T02:45:54.612Z,7.25
2023-05-17T02:46:54.651Z,7.25
2023-05-17T02:47:54.636Z,7.25
2023-05-17T02:48:54.600Z,7.28
2023-05-17T02:49:54.546Z,7.28
2023-05-17T02:50:54.542Z,7.29
2023-05-17T02:51:54.544Z,7.31
2023-05-17T02:52:54.510Z,7.32
2023-05-17T02:53:54.488Z,7.28
2023-05-17T02:54:54.478Z,7.29
2023-05-17T02:55:54.466Z,7.28
2023-05-17T02:56:54.453Z,7.28
2023-05-17T02:57:54.443Z,7.28
2023-05-17T02:58:54.430Z,7.28
2023-05-17T02:59:54.410Z,7.26
2023-05-17T03:00:54.404Z,7.28
2023-05-17T03:01:54.386Z,7.28
2023-05-17T03:02:54.503Z,7.25
2023-05-17T03:03:54.646Z,7.21
2023-05-17T03:04:54.417Z,7.14
2023-05-17T03:05:54.325Z,7.08
2023-05-17T03:06:54.345Z,7.04
2023-05-17T03:07:54.330Z,6.97
2023-05-17T03:08:54.309Z,6.93
2023-05-17T03:09:54.267Z,6.90
2023-05-17T03:10:54.333Z,6.87
2023-05-17T03:11:54.269Z,6.87
2023-05-17T03:12:54.255Z,6.86
2023-05-17T03:13:54.224Z,6.83
2023-05-17T03:14:54.215Z,6.82
2023-05-17T03:15:54.201Z,6.78
2023-05-17T03:16:54.209Z,6.75
2023-05-17T03:17:54.211Z,6.70
2023-05-17T03:18:54.306Z,6.71
2023-05-17T03:19:54.199Z,6.71
2023-05-17T03:20:54.157Z,6.71
2023-05-17T03:21:54.141Z,6.68
2023-05-17T03:22:54.184Z,6.67
2023-05-17T03:23:54.080Z,6.67
2023-05-17T03:24:54.092Z,6.67
2023-05-17T03:25:54.084Z,6.70
2023-05-17T03:26:54.088Z,6.71
2023-05-17T03:27:54.086Z,6.75
2023-05-17T03:28:54.027Z,6.74
2023-05-17T03:29:54.009Z,6.74
2023-05-17T03:30:54.072Z,6.77
2023-05-17T03:31:53.988Z,6.77
2023-05-17T03:32:54.022Z,6.78
2023-05-17T03:33:54.017Z,6.77
2023-05-17T03:34:53.979Z,6.74
2023-05-17T03:35:53.941Z,6.75
2023-05-17T03:36:53.928Z,6.75
2023-05-17T03:37:53.926Z,6.75
2023-05-17T03:38:53.896Z,6.74
2023-05-17T03:39:53.896Z,6.77
2023-05-17T03:40:53.887Z,6.77
2023-05-17T03:41:53.856Z,6.75
2023-05-17T03:42:53.854Z,6.75
2023-05-17T03:43:53.833Z,6.74
2023-05-17T03:44:53.834Z,6.77
2023-05-17T03:45:53.793Z,6.75
2023-05-17T03:46:53.787Z,6.74
2023-05-17T03:47:53.822Z,6.75
2023-05-17T03:48:53.811Z,6.75
2023-05-17T03:49:53.764Z,6.80
2023-05-17T03:50:53.736Z,6.80
2023-05-17T03:51:53.739Z,6.82
2023-05-17T03:52:53.718Z,6.85
2023-05-17T03:53:53.697Z,6.87
2023-05-17T03:54:53.697Z,6.89
2023-05-17T03:55:53.668Z,6.89
2023-05-17T03:56:53.641Z,6.93
2023-05-17T03:57:53.648Z,6.97
2023-05-17T03:58:53.653Z,7.07
2023-05-17T03:59:53.617Z,7.11
2023-05-17T04:00:53.603Z,7.15
2023-05-17T04:01:53.592Z,7.21
2023-05-17T04:02:53.651Z,7.25
2023-05-17T04:03:53.600Z,7.29
2023-05-17T04:04:53.629Z,7.32
2023-05-17T04:05:53.572Z,7.33
2023-05-17T04:06:53.532Z,7.36
2023-05-17T04:07:53.517Z,7.39
2023-05-17T04:08:53.517Z,7.44
2023-05-17T04:09:53.497Z,7.47
2023-05-17T04:10:53.490Z,7.46
2023-05-17T04:11:53.461Z,7.44
2023-05-17T04:12:53.480Z,7.46
2023-05-17T04:13:53.458Z,7.44
2023-05-17T04:14:53.502Z,7.46
2023-05-17T04:15:53.408Z,7.50
2023-05-17T04:16:53.405Z,7.53
2023-05-17T04:17:53.468Z,7.58
2023-05-17T04:18:53.533Z,7.66
2023-05-17T04:19:53.408Z,7.70
2023-05-17T04:20:53.355Z,7.74
2023-05-17T04:21:53.327Z,7.77
2023-05-17T04:22:53.337Z,7.80
2023-05-17T04:23:53.331Z,7.83
2023-05-17T04:24:53.308Z,7.84
2023-05-17T04:25:53.302Z,7.83
2023-05-17T04:26:53.276Z,7.84
2023-05-17T04:27:53.289Z,7.85
2023-05-17T04:28:53.228Z,7.87
2023-05-17T04:29:53.229Z,7.88
2023-05-17T04:30:53.229Z,7.87
2023-05-17T04:31:53.190Z,7.88
2023-05-17T04:32:53.249Z,7.88
2023-05-17T04:33:53.234Z,7.90
2023-05-17T04:34:53.159Z,7.88
2023-05-17T04:35:53.147Z,7.91
2023-05-17T04:36:53.159Z,7.91
2023-05-17T04:37:53.143Z,7.93
2023-05-17T04:38:53.117Z,7.96
2023-05-17T04:39:53.182Z,7.95
2023-05-17T04:40:53.087Z,7.96
2023-05-17T04:41:53.085Z,7.98
2023-05-17T04:42:53.072Z,7.95
2023-05-17T04:43:53.055Z,7.95
2023-05-17T04:44:53.031Z,7.98
2023-05-17T04:45:53.019Z,8.01
2023-05-17T04:46:53.040Z,8.05
2023-05-17T04:47:53.071Z,8.09
2023-05-17T04:48:53.045Z,8.14
2023-05-17T04:49:52.956Z,8.16
2023-05-17T04:50:52.969Z,8.18
2023-05-17T04:51:52.951Z,8.21
2023-05-17T04:52:52.932Z,8.21
2023-05-17T04:53:52.913Z,8.21
2023-05-17T04:54:52.902Z,8.34
2023-05-17T04:55:52.906Z,8.39
2023-05-17T04:56:52.874Z,8.41
2023-05-17T04:57:52.871Z,8.59
2023-05-17T04:58:53.142Z,8.64
2023-05-17T04:59:52.863Z,8.78
2023-05-17T05:00:52.840Z,8.99
2023-05-17T05:01:52.781Z,8.96
2023-05-17T05:02:53.415Z,9.15
2023-05-17T05:03:52.821Z,9.15
2023-05-17T05:04:52.883Z,9.26
2023-05-17T05:05:52.768Z,9.45
2023-05-17T05:06:52.743Z,9.64
2023-05-17T05:07:52.726Z,9.81
2023-05-17T05:08:52.816Z,9.87
2023-05-17T05:09:52.712Z,9.85
2023-05-17T05:10:52.703Z,9.77
2023-05-17T05:11:52.675Z,9.70
2023-05-17T05:12:52.670Z,9.66
2023-05-17T05:13:52.631Z,9.62
2023-05-17T05:14:52.654Z,9.55
2023-05-17T05:15:52.661Z,9.51
2023-05-17T05:16:52.597Z,9.45
2023-05-17T05:17:52.672Z,9.44
2023-05-17T05:18:52.766Z,9.42
2023-05-17T05:19:52.838Z,9.42
2023-05-17T05:20:52.544Z,9.42
2023-05-17T05:21:52.538Z,9.42
2023-05-17T05:22:52.519Z,9.44
2023-05-17T05:23:52.508Z,9.45
2023-05-17T05:24:52.521Z,9.47
2023-05-17T05:25:52.483Z,9.48
2023-05-17T05:26:53.183Z,9.49
2023-05-17T05:27:52.453Z,9.47
2023-05-17T05:28:52.464Z,9.48
2023-05-17T05:29:52.439Z,9.47
2023-05-17T05:30:52.430Z,9.44
2023-05-17T05:31:52.460Z,9.42
2023-05-17T05:32:52.514Z,9.44
2023-05-17T05:33:52.413Z,9.45
2023-05-17T05:34:52.380Z,9.48
2023-05-17T05:35:52.339Z,9.47
2023-05-17T05:36:52.348Z,9.51
2023-05-17T05:37:52.326Z,9.49
2023-05-17T05:38:52.329Z,9.51
2023-05-17T05:39:52.306Z,9.52
2023-05-17T05:40:52.333Z,9.54
2023-05-17T05:41:52.273Z,9.56
2023-05-17T05:42:52.251Z,9.56
2023-05-17T05:43:52.289Z,9.52
2023-05-17T05:44:52.311Z,9.48
2023-05-17T05:45:52.203Z,9.47
2023-05-17T05:46:52.232Z,9.52
2023-05-17T05:47:52.253Z,9.55
2023-05-17T05:48:52.251Z,9.62
2023-05-17T05:49:52.158Z,9.67
2023-05-17T05:50:52.148Z,9.70
2023-05-17T05:51:52.134Z,9.74
2023-05-17T05:52:53.457Z,9.74
2023-05-17T05:53:52.125Z,9.77
2023-05-17T05:54:52.098Z,9.77
2023-05-17T05:55:52.105Z,9.72
2023-05-17T05:56:52.069Z,9.72
2023-05-17T05:57:52.074Z,9.73
2023-05-17T05:58:52.055Z,9.73
2023-05-17T05:59:52.026Z,9.76
2023-05-17T06:00:52.042Z,9.77
2023-05-17T06:01:52.006Z,9.82
2023-05-17T06:02:52.046Z,9.85
2023-05-17T06:03:51.976Z,9.88
2023-05-17T06:04:52.069Z,9.90
2023-05-17T06:05:52.015Z,9.92
2023-05-17T06:06:53.097Z,9.95
2023-05-17T06:07:51.959Z,9.99
2023-05-17T06:08:51.909Z,10.05
2023-05-17T06:09:51.894Z,10.07
2023-05-17T06:10:51.914Z,10.10
2023-05-17T06:11:51.862Z,10.15
2023-05-17T06:12:51.867Z,10.17
2023-05-17T06:13:51.857Z,10.20
2023-05-17T06:14:51.823Z,10.24
2023-05-17T06:15:51.817Z,10.30
2023-05-17T06:16:51.806Z,10.33
2023-05-17T06:17:51.916Z,10.36
2023-05-17T06:18:51.855Z,10.39
2023-05-17T06:19:51.801Z,10.41
2023-05-17T06:20:51.740Z,10.45
2023-05-17T06:21:51.756Z,10.46
2023-05-17T06:22:51.829Z,10.49
2023-05-17T06:23:51.706Z,10.51
2023-05-17T06:24:51.687Z,10.46
2023-05-17T06:25:51.670Z,10.49
2023-05-17T06:26:51.667Z,10.49
2023-05-17T06:27:51.655Z,10.42
2023-05-17T06:28:51.624Z,10.41
2023-05-17T06:29:51.620Z,10.39
2023-05-17T06:30:51.612Z,10.39
2023-05-17T06:31:51.725Z,10.39
2023-05-17T06:32:51.689Z,10.41
2023-05-17T06:33:51.639Z,10.43
2023-05-17T06:34:51.568Z,10.51
2023-05-17T06:35:56.894Z,10.57
2023-05-17T06:36:52.531Z,10.55
2023-05-17T06:37:51.514Z,10.57
2023-05-17T06:38:51.481Z,10.57
2023-05-17T06:39:55.996Z,10.61
2023-05-17T06:40:52.494Z,10.64
2023-05-17T06:41:51.670Z,10.68
2023-05-17T06:42:51.455Z,10.69
2023-05-17T06:43:51.442Z,10.71
2023-05-17T06:44:51.410Z,10.76
2023-05-17T06:45:51.517Z,10.77
2023-05-17T06:46:51.377Z,10.83
2023-05-17T06:47:51.465Z,10.89
2023-05-17T06:48:51.719Z,10.90
2023-05-17T06:49:51.378Z,10.92
2023-05-17T06:50:51.337Z,10.89
2023-05-17T06:51:51.300Z,10.89
2023-05-17T06:52:51.346Z,10.94
2023-05-17T06:53:51.313Z,10.92
2023-05-17T06:54:51.286Z,10.92
2023-05-17T06:55:51.276Z,10.98
2023-05-17T06:56:51.240Z,11.01
2023-05-17T06:57:51.248Z,11.07
2023-05-17T06:58:51.237Z,11.15
2023-05-17T06:59:51.224Z,11.18
2023-05-17T07:00:51.179Z,11.18
2023-05-17T07:01:51.177Z,11.19
2023-05-17T07:02:51.189Z,11.23
2023-05-17T07:03:51.276Z,11.33
2023-05-17T07:04:51.181Z,11.44
2023-05-17T07:05:51.137Z,11.53
2023-05-17T07:06:51.120Z,11.56
2023-05-17T07:07:51.871Z,11.60
2023-05-17T07:08:51.145Z,11.62
2023-05-17T07:09:51.069Z,11.65
2023-05-17T07:10:51.064Z,11.63
2023-05-17T07:11:51.046Z,11.51
2023-05-17T07:12:51.029Z,11.51
2023-05-17T07:13:52.783Z,11.52
2023-05-17T07:14:51.181Z,11.52
2023-05-17T07:15:50.997Z,11.53
2023-05-17T07:16:50.987Z,11.55
2023-05-17T07:17:51.020Z,11.59
2023-05-17T07:18:51.131Z,11.63
2023-05-17T07:19:53.394Z,11.65
2023-05-17T07:20:50.919Z,11.63
2023-05-17T07:21:50.926Z,11.58
2023-05-17T07:22:50.917Z,11.56
2023-05-17T07:23:50.913Z,11.52
2023-05-17T07:24:50.862Z,11.45
2023-05-17T07:25:50.849Z,11.48
2023-05-17T07:26:52.333Z,11.52
2023-05-17T07:27:50.847Z,11.55
2023-05-17T07:28:50.814Z,11.55
2023-05-17T07:29:50.804Z,11.55
2023-05-17T07:30:50.776Z,11.58
2023-05-17T07:31:50.785Z,11.60
2023-05-17T07:32:50.828Z,11.60
2023-05-17T07:33:50.779Z,11.62
2023-05-17T07:34:50.737Z,11.62
2023-05-17T07:35:50.766Z,11.67
2023-05-17T07:36:50.712Z,11.73
2023-05-17T07:37:50.716Z,11.86
2023-05-17T07:38:50.676Z,11.80
2023-05-17T07:39:50.664Z,11.81
2023-05-17T07:40:50.639Z,11.88
2023-05-17T07:41:50.636Z,11.93
2023-05-17T07:42:50.665Z,11.89
2023-05-17T07:43:50.611Z,11.88
2023-05-17T07:44:50.596Z,11.97
2023-05-17T07:45:50.582Z,11.95
2023-05-17T07:46:50.604Z,11.85
2023-05-17T07:47:50.630Z,11.80
2023-05-17T07:48:50.738Z,11.73
2023-05-17T07:49:50.537Z,11.71
2023-05-17T07:50:50.527Z,11.70
2023-05-17T07:51:50.545Z,11.70
2023-05-17T07:52:50.489Z,11.65
2023-05-17T07:53:50.502Z,11.63
2023-05-17T07:54:50.474Z,11.60
2023-05-17T07:55:51.238Z,11.59
2023-05-17T07:56:50.460Z,11.59
2023-05-17T07:57:50.465Z,11.56
2023-05-17T07:58:50.454Z,11.55
2023-05-17T07:59:50.397Z,11.55
2023-05-17T08:00:50.404Z,11.53
2023-05-17T08:01:50.383Z,11.53
2023-05-17T08:02:50.381Z,11.56
2023-05-17T08:03:50.362Z,11.65
2023-05-17T08:04:50.372Z,11.71
2023-05-17T08:05:50.379Z,11.76
2023-05-17T08:06:50.333Z,11.76
2023-05-17T08:07:50.305Z,11.80
2023-05-17T08:08:50.273Z,11.83
2023-05-17T08:09:50.274Z,11.85
2023-05-17T08:10:50.288Z,11.86
2023-05-17T08:11:50.250Z,11.91
2023-05-17T08:12:50.205Z,11.93
2023-05-17T08:13:50.204Z,12.02
2023-05-17T08:14:50.213Z,12.07
2023-05-17T08:15:53.659Z,12.11
2023-05-17T08:16:51.170Z,12.12
2023-05-17T08:17:50.430Z,12.14
2023-05-17T08:18:50.296Z,12.11
2023-05-17T08:19:50.222Z,12.08
2023-05-17T08:20:50.130Z,12.02
2023-05-17T08:21:50.102Z,12.00
2023-05-17T08:22:50.079Z,11.99
2023-05-17T08:23:50.075Z,12.02
2023-05-17T08:24:50.073Z,12.14
2023-05-17T08:25:50.046Z,12.21
2023-05-17T08:26:50.038Z,12.28
2023-05-17T08:27:50.019Z,12.32
2023-05-17T08:28:50.038Z,12.36
2023-05-17T08:29:50.136Z,12.39
2023-05-17T08:30:49.984Z,12.39
2023-05-17T08:31:49.962Z,12.40
2023-05-17T08:32:50.010Z,12.39
2023-05-17T08:33:49.981Z,12.33
2023-05-17T08:34:49.972Z,12.32
2023-05-17T08:35:49.910Z,12.32
2023-05-17T08:36:49.912Z,12.28
2023-05-17T08:37:49.884Z,12.17
2023-05-17T08:38:49.883Z,12.07
2023-05-17T08:39:49.909Z,12.02
2023-05-17T08:40:49.841Z,11.99
2023-05-17T08:41:49.856Z,11.91
2023-05-17T08:42:49.837Z,11.88
2023-05-17T08:43:49.825Z,11.88
2023-05-17T08:44:49.780Z,11.88
2023-05-17T08:45:49.773Z,11.91
2023-05-17T08:46:49.759Z,11.97
2023-05-17T08:47:49.780Z,12.11
2023-05-17T08:48:49.801Z,12.15
2023-05-17T08:49:49.714Z,12.15
2023-05-17T08:50:49.676Z,12.17
2023-05-17T08:51:49.694Z,12.15
2023-05-17T08:52:49.790Z,12.17
2023-05-17T08:53:49.673Z,12.17
2023-05-17T08:54:49.649Z,12.23
2023-05-17T08:55:49.644Z,12.26
2023-05-17T08:56:49.627Z,12.32
2023-05-17T08:57:49.660Z,12.43
2023-05-17T08:58:56.165Z,12.54
2023-05-17T08:59:50.588Z,12.68
2023-05-17T09:00:50.027Z,12.81
2023-05-17T09:01:49.556Z,12.98
2023-05-17T09:02:49.656Z,13.08
2023-05-17T09:03:49.589Z,13.12
2023-05-17T09:04:49.579Z,13.13
2023-05-17T09:05:49.611Z,13.09
2023-05-17T09:06:49.504Z,13.02
2023-05-17T09:07:49.501Z,12.95
2023-05-17T09:08:49.455Z,12.87
2023-05-17T09:09:49.546Z,12.80
2023-05-17T09:10:49.436Z,12.65
2023-05-17T09:11:49.440Z,12.57
2023-05-17T09:12:49.398Z,12.55
2023-05-17T09:13:49.451Z,12.57
2023-05-17T09:14:49.385Z,12.58
2023-05-17T09:15:49.378Z,12.57
2023-05-17T09:16:49.386Z,12.61
2023-05-17T09:17:49.443Z,12.61
2023-05-17T09:18:49.477Z,12.63
2023-05-17T09:19:49.382Z,12.63
2023-05-17T09:20:49.292Z,12.63
2023-05-17T09:21:49.308Z,12.63
2023-05-17T09:22:49.270Z,12.62
2023-05-17T09:24:01.677Z,12.62
2023-05-17T09:24:50.241Z,12.61
2023-05-17T09:25:49.289Z,12.57
2023-05-17T09:26:49.246Z,12.54
2023-05-17T09:27:49.248Z,12.57
2023-05-17T09:28:49.187Z,12.58
2023-05-17T09:29:49.193Z,12.66
2023-05-17T09:30:49.201Z,12.80
2023-05-17T09:31:49.180Z,12.94
2023-05-17T09:33:49.157Z,13.21
2023-05-17T09:34:49.116Z,13.30
2023-05-17T09:35:49.134Z,13.23
2023-05-17T09:36:49.087Z,13.24
2023-05-17T09:37:49.078Z,13.31
2023-05-17T09:38:49.057Z,13.36
2023-05-17T09:39:49.046Z,13.28
2023-05-17T09:40:49.042Z,13.26
2023-05-17T09:41:49.035Z,13.20
2023-05-17T09:42:49.006Z,13.23
2023-05-17T09:43:49.008Z,13.21
2023-05-17T09:44:48.990Z,13.20
2023-05-17T09:45:48.991Z,13.17
2023-05-17T09:46:48.989Z,13.09
2023-05-17T09:47:49.019Z,13.13
2023-05-17T09:48:49.011Z,13.23
2023-05-17T09:49:48.941Z,13.30
2023-05-17T09:50:48.900Z,13.40
2023-05-17T09:51:48.911Z,13.50
2023-05-17T09:52:48.879Z,13.60
2023-05-17T09:53:48.872Z,13.57
2023-05-17T09:54:48.875Z,13.52
2023-05-17T09:55:48.841Z,13.61
2023-05-17T09:56:48.834Z,13.62
2023-05-17T09:57:48.809Z,13.67
2023-05-17T09:58:48.799Z,13.78
2023-05-17T09:59:48.804Z,13.86
2023-05-17T10:00:48.991Z,14.00
2023-05-17T10:01:48.770Z,14.08
2023-05-17T10:02:48.786Z,14.16
2023-05-17T10:03:48.862Z,14.18
2023-05-17T10:04:48.741Z,14.20
2023-05-17T10:05:48.715Z,14.25
2023-05-17T10:06:51.723Z,14.30
2023-05-17T10:07:48.695Z,14.37
2023-05-17T10:08:48.696Z,14.36
2023-05-17T10:09:48.674Z,14.28
2023-05-17T10:10:48.630Z,14.28
2023-05-17T10:11:48.650Z,14.22
2023-05-17T10:12:48.613Z,14.12
2023-05-17T10:13:48.612Z,14.01
2023-05-17T10:14:48.692Z,14.00
2023-05-17T10:15:48.597Z,14.07
2023-05-17T10:16:48.564Z,14.05
2023-05-17T10:17:48.603Z,14.07
2023-05-17T10:18:48.599Z,14.08
2023-05-17T10:19:48.685Z,14.18
2023-05-17T10:20:48.519Z,14.25
2023-05-17T10:21:48.514Z,14.30
2023-05-17T10:22:48.486Z,14.37
2023-05-17T10:23:48.482Z,14.43
2023-05-17T10:24:48.467Z,14.45
2023-05-17T10:25:48.441Z,14.51
2023-05-17T10:26:48.426Z,14.49
2023-05-17T10:27:48.423Z,14.53
2023-05-17T10:28:48.401Z,14.56
2023-05-17T10:29:50.433Z,14.68
2023-05-17T10:30:48.376Z,14.77
2023-05-17T10:31:48.352Z,14.85
2023-05-17T10:32:48.520Z,14.90
2023-05-17T10:33:48.347Z,14.94
2023-05-17T10:34:54.783Z,15.00
2023-05-17T10:35:49.302Z,15.05
2023-05-17T10:36:48.315Z,15.11
2023-05-17T10:37:48.313Z,15.19
2023-05-17T10:38:48.324Z,15.27
2023-05-17T10:39:48.553Z,15.25
2023-05-17T10:40:48.237Z,15.29
2023-05-17T10:41:48.704Z,15.30
2023-05-17T10:42:48.238Z,15.30
2023-05-17T10:43:48.188Z,15.36
2023-05-17T10:44:48.183Z,15.39
2023-05-17T10:45:48.162Z,15.41
2023-05-17T10:46:48.185Z,15.43
2023-05-17T10:47:48.138Z,15.47
2023-05-17T10:48:48.172Z,15.50
2023-05-17T10:49:48.229Z,15.45
2023-05-17T10:51:01.173Z,15.41
2023-05-17T10:51:49.102Z,15.43
2023-05-17T10:52:48.070Z,15.43
2023-05-17T10:53:48.062Z,15.36
2023-05-17T10:54:48.051Z,15.30
2023-05-17T10:55:48.055Z,15.26
2023-05-17T10:56:48.044Z,15.23
2023-05-17T10:57:51.118Z,15.26
2023-05-17T10:58:48.014Z,15.27
2023-05-17T10:59:47.971Z,15.22
2023-05-17T11:00:47.984Z,15.14
2023-05-17T11:01:47.959Z,15.15
2023-05-17T11:02:47.965Z,15.23
2023-05-17T11:03:47.934Z,15.32
2023-05-17T11:04:47.976Z,15.39
2023-05-17T11:05:48.190Z,15.52
2023-05-17T11:06:47.979Z,15.65
2023-05-17T11:07:47.845Z,15.72
2023-05-17T11:08:47.840Z,15.83
2023-05-17T11:09:47.816Z,15.94
2023-05-17T11:10:47.819Z,15.98
2023-05-17T11:11:47.804Z,16.02
2023-05-17T11:12:47.793Z,16.08
2023-05-17T11:13:47.768Z,16.13
2023-05-17T11:14:47.774Z,16.16
2023-05-17T11:15:47.764Z,16.13
2023-05-17T11:16:47.741Z,16.02
2023-05-17T11:17:47.739Z,15.90
2023-05-17T11:18:47.879Z,15.78
2023-05-17T11:19:47.780Z,15.75
2023-05-17T11:20:47.915Z,15.73
2023-05-17T11:21:47.751Z,15.83
2023-05-17T11:22:47.664Z,15.90
2023-05-17T11:23:47.618Z,15.85
2023-05-17T11:24:47.647Z,15.76
2023-05-17T11:25:47.616Z,15.78
2023-05-17T11:26:47.606Z,15.75
2023-05-17T11:27:47.592Z,15.75
2023-05-17T11:28:47.583Z,15.83
2023-05-17T11:29:47.586Z,15.87
2023-05-17T11:30:47.561Z,15.94
2023-05-17T11:31:47.518Z,16.03
2023-05-17T11:32:47.586Z,16.05
2023-05-17T11:33:47.598Z,16.06
2023-05-17T11:34:47.576Z,16.03
2023-05-17T11:35:50.021Z,15.98
2023-05-17T11:36:47.480Z,15.90
2023-05-17T11:37:47.483Z,15.81
2023-05-17T11:38:48.196Z,15.72
2023-05-17T11:39:47.460Z,15.67
2023-05-17T11:40:47.447Z,15.73
2023-05-17T11:41:47.452Z,15.84
2023-05-17T11:42:47.399Z,15.92
2023-05-17T11:43:47.426Z,16.08
2023-05-17T11:44:47.359Z,16.24
2023-05-17T11:45:47.348Z,16.29
2023-05-17T11:46:47.348Z,16.31
2023-05-17T11:47:47.419Z,16.32
2023-05-17T11:48:47.415Z,16.40
2023-05-17T11:49:47.302Z,16.49
2023-05-17T11:50:47.284Z,16.58
2023-05-17T11:51:47.253Z,16.65
2023-05-17T11:52:47.311Z,16.66
2023-05-17T11:53:47.273Z,16.72
2023-05-17T11:54:47.247Z,16.76
2023-05-17T11:55:47.206Z,16.79
2023-05-17T11:56:47.192Z,16.80
2023-05-17T11:57:47.206Z,16.83
2023-05-17T11:58:47.178Z,16.89
2023-05-17T11:59:47.149Z,16.91
2023-05-17T12:00:47.164Z,16.92
2023-05-17T12:01:47.134Z,16.95
2023-05-17T12:02:47.197Z,17.01
2023-05-17T12:03:47.105Z,17.04
2023-05-17T12:04:47.137Z,17.07
2023-05-17T12:05:47.067Z,17.10
2023-05-17T12:06:47.089Z,17.07
2023-05-17T12:07:47.081Z,17.09
2023-05-17T12:08:47.045Z,17.10
2023-05-17T12:09:47.020Z,17.12
2023-05-17T12:10:47.037Z,17.14
2023-05-17T12:11:47.014Z,17.10
2023-05-17T12:12:47.004Z,16.98
2023-05-17T12:13:46.982Z,16.91
2023-05-17T12:14:46.975Z,16.92
2023-05-17T12:15:46.935Z,16.95
2023-05-17T12:16:46.955Z,17.05
2023-05-17T12:17:48.665Z,17.14
2023-05-17T12:18:47.071Z,17.17
2023-05-17T12:19:47.061Z,17.17
2023-05-17T12:20:46.887Z,17.19
2023-05-17T12:21:46.874Z,17.12
2023-05-17T12:22:46.955Z,17.10
2023-05-17T12:23:48.862Z,17.13
2023-05-17T12:24:46.897Z,17.22
2023-05-17T12:25:46.807Z,17.35
2023-05-17T12:26:46.823Z,17.41
2023-05-17T12:27:46.789Z,17.41
2023-05-17T12:28:46.774Z,17.47
2023-05-17T12:29:46.751Z,17.47
2023-05-17T12:30:46.792Z,17.52
2023-05-17T12:31:46.759Z,17.54
2023-05-17T12:32:46.816Z,17.65
2023-05-17T12:33:46.757Z,17.66
2023-05-17T12:34:46.682Z,17.71
2023-05-17T12:35:46.690Z,17.76
2023-05-17T12:36:46.700Z,17.86
2023-05-17T12:37:46.639Z,17.97
2023-05-17T12:38:46.634Z,18.05
2023-05-17T12:39:46.633Z,18.12
2023-05-17T12:40:46.624Z,18.18
2023-05-17T12:41:46.643Z,18.05
2023-05-17T12:42:46.584Z,17.94
2023-05-17T12:43:46.620Z,17.79
2023-05-17T12:44:46.557Z,17.57
2023-05-17T12:45:46.554Z,17.54
2023-05-17T12:46:46.546Z,17.63
2023-05-17T12:47:46.526Z,17.63
2023-05-17T12:48:46.553Z,17.63
2023-05-17T12:49:46.497Z,17.63
2023-05-17T12:50:46.534Z,17.59
2023-05-17T12:51:46.452Z,17.57
2023-05-17T12:52:46.447Z,17.63
2023-05-17T12:53:46.420Z,17.69
2023-05-17T12:54:46.429Z,17.71
2023-05-17T12:55:46.396Z,17.78
2023-05-17T12:56:46.416Z,17.80
2023-05-17T12:57:46.364Z,17.82
2023-05-17T12:58:46.392Z,17.84
2023-05-17T12:59:46.362Z,17.91
2023-05-17T13:00:46.325Z,17.98
2023-05-17T13:01:46.306Z,18.08
2023-05-17T13:02:46.343Z,18.11
2023-05-17T13:03:46.443Z,18.18
2023-05-17T13:04:46.383Z,18.31
2023-05-17T13:05:46.264Z,18.43